Monticello, Louisiana
Current Conditions -  °F | °C
As of 11:53 PM on Friday 19 Dec 2014 (Local Time) from KTVR Reporting Station
Light Rain Light Rain  
Wind Chill: 42°   Ceiling: 1200
Heat Index: 46°   Visibility: 3mi
Dew Point: 44°   Wind: 7mph
Humidity: 93%   Direction: 10°N
Pressure: 30.19"   Gusts: NA
Location:  32.8408°N, 91.231°W
Report Text: KTVR 200553Z AUTO 01006KT 3SM -RA BR FEW007 BKN012 OVC025 08/07 A3019 RMK AO2 RAB16 SLP229 P0001 60001 T00780067 10083 20078 401000078 56003
Loading
Personal Weather Stations






























Interactive Weather Map New forecast layout! Learn more

10-Day Weather Forecast

Advertisements
Track Severe Weather on mobile